sensor_id;sensor_type;location;lat;lon;timestamp;P1;durP1;ratioP1;P2;durP2;ratioP2
37855;SDS011;23694;43.274;26.924;2024-03-08T00:00:20;58.80;;;34.40;;
37855;SDS011;23694;43.274;26.924;2024-03-08T00:02:46;63.23;;;38.40;;
37855;SDS011;23694;43.274;26.924;2024-03-08T00:05:14;67.37;;;38.23;;
37855;SDS011;23694;43.274;26.924;2024-03-08T00:07:41;68.17;;;41.00;;
37855;SDS011;23694;43.274;26.924;2024-03-08T00:10:09;64.87;;;38.67;;
37855;SDS011;23694;43.274;26.924;2024-03-08T00:12:40;69.67;;;40.97;;
37855;SDS011;23694;43.274;26.924;2024-03-08T00:15:11;70.30;;;40.07;;
37855;SDS011;23694;43.274;26.924;2024-03-08T00:17:41;70.67;;;39.57;;
37855;SDS011;23694;43.274;26.924;2024-03-08T00:20:08;75.90;;;42.53;;
37855;SDS011;23694;43.274;26.924;2024-03-08T00:22:35;73.17;;;42.53;;
37855;SDS011;23694;43.274;26.924;2024-03-08T00:25:05;74.10;;;43.87;;
37855;SDS011;23694;43.274;26.924;2024-03-08T00:27:36;71.87;;;42.10;;
37855;SDS011;23694;43.274;26.924;2024-03-08T00:30:03;76.50;;;45.37;;
37855;SDS011;23694;43.274;26.924;2024-03-08T00:32:31;81.60;;;44.90;;
37855;SDS011;23694;43.274;26.924;2024-03-08T00:34:58;75.07;;;43.20;;
37855;SDS011;23694;43.274;26.924;2024-03-08T00:37:25;84.03;;;45.73;;
37855;SDS011;23694;43.274;26.924;2024-03-08T00:39:52;80.53;;;46.43;;
37855;SDS011;23694;43.274;26.924;2024-03-08T00:42:19;85.03;;;44.77;;
37855;SDS011;23694;43.274;26.924;2024-03-08T00:44:46;83.27;;;45.90;;
37855;SDS011;23694;43.274;26.924;2024-03-08T00:47:13;86.03;;;48.13;;
37855;SDS011;23694;43.274;26.924;2024-03-08T00:49:41;85.73;;;45.80;;
37855;SDS011;23694;43.274;26.924;2024-03-08T00:52:08;91.00;;;47.17;;
37855;SDS011;23694;43.274;26.924;2024-03-08T00:54:34;83.37;;;44.97;;
37855;SDS011;23694;43.274;26.924;2024-03-08T00:57:05;84.07;;;43.27;;
37855;SDS011;23694;43.274;26.924;2024-03-08T00:59:32;86.60;;;44.90;;
37855;SDS011;23694;43.274;26.924;2024-03-08T01:01:58;84.27;;;45.37;;
37855;SDS011;23694;43.274;26.924;2024-03-08T01:04:28;90.17;;;46.93;;
37855;SDS011;23694;43.274;26.924;2024-03-08T01:06:55;81.03;;;44.57;;
37855;SDS011;23694;43.274;26.924;2024-03-08T01:09:23;81.87;;;44.80;;
37855;SDS011;23694;43.274;26.924;2024-03-08T01:11:50;82.30;;;44.23;;
37855;SDS011;23694;43.274;26.924;2024-03-08T01:14:17;85.40;;;45.63;;
37855;SDS011;23694;43.274;26.924;2024-03-08T01:16:43;89.93;;;46.80;;
37855;SDS011;23694;43.274;26.924;2024-03-08T01:19:09;92.47;;;48.63;;
37855;SDS011;23694;43.274;26.924;2024-03-08T01:21:35;87.07;;;45.90;;
37855;SDS011;23694;43.274;26.924;2024-03-08T01:24:02;95.93;;;49.03;;
37855;SDS011;23694;43.274;26.924;2024-03-08T01:26:28;99.10;;;48.47;;
37855;SDS011;23694;43.274;26.924;2024-03-08T01:28:54;95.00;;;49.77;;
37855;SDS011;23694;43.274;26.924;2024-03-08T01:31:20;90.97;;;48.27;;
37855;SDS011;23694;43.274;26.924;2024-03-08T01:33:47;88.30;;;46.30;;
37855;SDS011;23694;43.274;26.924;2024-03-08T01:36:14;90.07;;;48.57;;
37855;SDS011;23694;43.274;26.924;2024-03-08T01:38:42;85.40;;;47.77;;
37855;SDS011;23694;43.274;26.924;2024-03-08T01:41:08;87.63;;;45.00;;
37855;SDS011;23694;43.274;26.924;2024-03-08T01:43:34;89.27;;;47.30;;
37855;SDS011;23694;43.274;26.924;2024-03-08T01:46:00;88.73;;;46.07;;
37855;SDS011;23694;43.274;26.924;2024-03-08T01:48:27;84.43;;;43.17;;
37855;SDS011;23694;43.274;26.924;2024-03-08T01:50:55;79.00;;;40.13;;
37855;SDS011;23694;43.274;26.924;2024-03-08T01:53:26;80.57;;;42.30;;
37855;SDS011;23694;43.274;26.924;2024-03-08T01:55:56;76.00;;;41.92;;
37855;SDS011;23694;43.274;26.924;2024-03-08T01:58:23;76.60;;;42.23;;
37855;SDS011;23694;43.274;26.924;2024-03-08T02:00:52;77.07;;;40.40;;
37855;SDS011;23694;43.274;26.924;2024-03-08T02:03:18;69.93;;;38.80;;
37855;SDS011;23694;43.274;26.924;2024-03-08T02:05:45;74.60;;;39.53;;
37855;SDS011;23694;43.274;26.924;2024-03-08T02:08:11;67.03;;;37.27;;
37855;SDS011;23694;43.274;26.924;2024-03-08T02:10:41;71.90;;;37.23;;
37855;SDS011;23694;43.274;26.924;2024-03-08T02:13:09;64.87;;;35.97;;
37855;SDS011;23694;43.274;26.924;2024-03-08T02:15:55;70.50;;;36.60;;
37855;SDS011;23694;43.274;26.924;2024-03-08T02:18:22;60.20;;;35.37;;
37855;SDS011;23694;43.274;26.924;2024-03-08T02:20:49;56.97;;;33.10;;
37855;SDS011;23694;43.274;26.924;2024-03-08T02:23:20;54.90;;;32.43;;
37855;SDS011;23694;43.274;26.924;2024-03-08T02:25:47;51.50;;;31.33;;
37855;SDS011;23694;43.274;26.924;2024-03-08T02:28:13;59.13;;;32.63;;
37855;SDS011;23694;43.274;26.924;2024-03-08T02:30:41;52.50;;;31.10;;
37855;SDS011;23694;43.274;26.924;2024-03-08T02:33:07;56.60;;;31.73;;
37855;SDS011;23694;43.274;26.924;2024-03-08T02:35:36;53.33;;;31.10;;
37855;SDS011;23694;43.274;26.924;2024-03-08T02:38:05;51.10;;;31.10;;
37855;SDS011;23694;43.274;26.924;2024-03-08T02:40:32;51.77;;;30.40;;
37855;SDS011;23694;43.274;26.924;2024-03-08T02:42:58;54.03;;;30.93;;
37855;SDS011;23694;43.274;26.924;2024-03-08T02:45:24;46.43;;;29.27;;
37855;SDS011;23694;43.274;26.924;2024-03-08T02:47:50;52.50;;;29.83;;
37855;SDS011;23694;43.274;26.924;2024-03-08T02:50:17;48.50;;;29.30;;
37855;SDS011;23694;43.274;26.924;2024-03-08T02:52:43;51.10;;;30.53;;
37855;SDS011;23694;43.274;26.924;2024-03-08T02:55:12;47.13;;;29.93;;
37855;SDS011;23694;43.274;26.924;2024-03-08T02:57:43;52.57;;;30.40;;
37855;SDS011;23694;43.274;26.924;2024-03-08T03:00:09;50.43;;;30.93;;
37855;SDS011;23694;43.274;26.924;2024-03-08T03:02:36;44.43;;;28.87;;
37855;SDS011;23694;43.274;26.924;2024-03-08T03:05:03;49.77;;;29.90;;
37855;SDS011;23694;43.274;26.924;2024-03-08T03:07:32;46.40;;;28.53;;
37855;SDS011;23694;43.274;26.924;2024-03-08T03:10:01;52.30;;;30.50;;
37855;SDS011;23694;43.274;26.924;2024-03-08T03:12:28;52.07;;;29.30;;
37855;SDS011;23694;43.274;26.924;2024-03-08T03:14:55;47.87;;;29.67;;
37855;SDS011;23694;43.274;26.924;2024-03-08T03:17:24;51.50;;;31.23;;
37855;SDS011;23694;43.274;26.924;2024-03-08T03:19:52;54.83;;;30.00;;
37855;SDS011;23694;43.274;26.924;2024-03-08T03:22:19;53.93;;;31.73;;
37855;SDS011;23694;43.274;26.924;2024-03-08T03:24:45;50.43;;;30.50;;
37855;SDS011;23694;43.274;26.924;2024-03-08T03:27:17;47.28;;;29.33;;
37855;SDS011;23694;43.274;26.924;2024-03-08T03:29:43;50.57;;;29.17;;
37855;SDS011;23694;43.274;26.924;2024-03-08T03:32:12;52.33;;;29.10;;
37855;SDS011;23694;43.274;26.924;2024-03-08T03:34:39;48.70;;;29.37;;
37855;SDS011;23694;43.274;26.924;2024-03-08T03:37:06;47.20;;;28.90;;
37855;SDS011;23694;43.274;26.924;2024-03-08T03:39:34;49.50;;;28.83;;
37855;SDS011;23694;43.274;26.924;2024-03-08T03:42:06;50.05;;;29.13;;
37855;SDS011;23694;43.274;26.924;2024-03-08T03:44:32;49.30;;;29.30;;
37855;SDS011;23694;43.274;26.924;2024-03-08T03:46:58;49.20;;;28.90;;
37855;SDS011;23694;43.274;26.924;2024-03-08T03:49:24;50.40;;;30.83;;
37855;SDS011;23694;43.274;26.924;2024-03-08T03:51:50;51.37;;;29.53;;
37855;SDS011;23694;43.274;26.924;2024-03-08T03:54:16;48.87;;;29.27;;
37855;SDS011;23694;43.274;26.924;2024-03-08T03:56:42;50.80;;;30.00;;
37855;SDS011;23694;43.274;26.924;2024-03-08T03:59:09;50.63;;;29.97;;
37855;SDS011;23694;43.274;26.924;2024-03-08T04:01:35;51.67;;;30.23;;
37855;SDS011;23694;43.274;26.924;2024-03-08T04:04:01;56.40;;;31.07;;
37855;SDS011;23694;43.274;26.924;2024-03-08T04:06:27;53.50;;;30.73;;
37855;SDS011;23694;43.274;26.924;2024-03-08T04:08:54;51.73;;;30.67;;
37855;SDS011;23694;43.274;26.924;2024-03-08T04:11:20;54.77;;;30.93;;
37855;SDS011;23694;43.274;26.924;2024-03-08T04:13:46;58.47;;;32.37;;
37855;SDS011;23694;43.274;26.924;2024-03-08T04:16:13;56.93;;;32.93;;
37855;SDS011;23694;43.274;26.924;2024-03-08T04:18:41;60.00;;;32.97;;
37855;SDS011;23694;43.274;26.924;2024-03-08T04:21:07;56.50;;;33.00;;
37855;SDS011;23694;43.274;26.924;2024-03-08T04:23:33;59.60;;;34.37;;
37855;SDS011;23694;43.274;26.924;2024-03-08T04:26:02;63.40;;;36.67;;
37855;SDS011;23694;43.274;26.924;2024-03-08T04:28:30;67.37;;;38.30;;
37855;SDS011;23694;43.274;26.924;2024-03-08T04:30:58;70.57;;;38.43;;
37855;SDS011;23694;43.274;26.924;2024-03-08T04:33:26;66.83;;;37.60;;
37855;SDS011;23694;43.274;26.924;2024-03-08T04:35:52;64.03;;;36.47;;
37855;SDS011;23694;43.274;26.924;2024-03-08T04:38:18;65.63;;;37.00;;
37855;SDS011;23694;43.274;26.924;2024-03-08T04:40:45;69.10;;;37.60;;
37855;SDS011;23694;43.274;26.924;2024-03-08T04:43:11;65.00;;;37.23;;
37855;SDS011;23694;43.274;26.924;2024-03-08T04:45:37;69.17;;;36.80;;
37855;SDS011;23694;43.274;26.924;2024-03-08T04:48:05;69.33;;;38.03;;
37855;SDS011;23694;43.274;26.924;2024-03-08T04:50:31;69.63;;;37.60;;
37855;SDS011;23694;43.274;26.924;2024-03-08T04:52:57;68.07;;;39.40;;
37855;SDS011;23694;43.274;26.924;2024-03-08T04:55:23;71.37;;;40.73;;
37855;SDS011;23694;43.274;26.924;2024-03-08T04:57:50;71.13;;;40.33;;
37855;SDS011;23694;43.274;26.924;2024-03-08T05:00:16;74.27;;;39.90;;
37855;SDS011;23694;43.274;26.924;2024-03-08T05:02:43;73.23;;;41.33;;
37855;SDS011;23694;43.274;26.924;2024-03-08T05:05:09;72.13;;;40.13;;
37855;SDS011;23694;43.274;26.924;2024-03-08T05:07:39;62.93;;;36.47;;
37855;SDS011;23694;43.274;26.924;2024-03-08T05:10:06;72.93;;;37.77;;
37855;SDS011;23694;43.274;26.924;2024-03-08T05:12:33;69.87;;;39.67;;
37855;SDS011;23694;43.274;26.924;2024-03-08T05:14:59;74.77;;;39.97;;
37855;SDS011;23694;43.274;26.924;2024-03-08T05:17:26;68.17;;;38.83;;
37855;SDS011;23694;43.274;26.924;2024-03-08T05:19:52;71.23;;;41.57;;
37855;SDS011;23694;43.274;26.924;2024-03-08T05:22:19;68.27;;;40.13;;
37855;SDS011;23694;43.274;26.924;2024-03-08T05:24:45;72.63;;;39.33;;
37855;SDS011;23694;43.274;26.924;2024-03-08T05:27:11;103.53;;;62.70;;
37855;SDS011;23694;43.274;26.924;2024-03-08T05:29:38;91.23;;;59.07;;
37855;SDS011;23694;43.274;26.924;2024-03-08T05:32:04;74.40;;;39.57;;
37855;SDS011;23694;43.274;26.924;2024-03-08T05:34:32;74.73;;;40.00;;
37855;SDS011;23694;43.274;26.924;2024-03-08T05:36:58;69.47;;;40.03;;
37855;SDS011;23694;43.274;26.924;2024-03-08T05:39:25;74.93;;;41.37;;
37855;SDS011;23694;43.274;26.924;2024-03-08T05:41:51;70.30;;;38.87;;
37855;SDS011;23694;43.274;26.924;2024-03-08T05:44:18;64.80;;;38.03;;
37855;SDS011;23694;43.274;26.924;2024-03-08T05:46:44;70.17;;;42.40;;
37855;SDS011;23694;43.274;26.924;2024-03-08T05:49:12;73.23;;;37.30;;
37855;SDS011;23694;43.274;26.924;2024-03-08T05:51:39;66.67;;;40.40;;
37855;SDS011;23694;43.274;26.924;2024-03-08T05:54:07;64.40;;;38.00;;
37855;SDS011;23694;43.274;26.924;2024-03-08T05:56:37;66.87;;;38.93;;
37855;SDS011;23694;43.274;26.924;2024-03-08T05:59:06;75.27;;;44.30;;
37855;SDS011;23694;43.274;26.924;2024-03-08T06:01:32;62.77;;;38.07;;
37855;SDS011;23694;43.274;26.924;2024-03-08T06:04:02;67.83;;;38.80;;
37855;SDS011;23694;43.274;26.924;2024-03-08T06:06:29;64.00;;;38.40;;
37855;SDS011;23694;43.274;26.924;2024-03-08T06:08:55;66.03;;;42.77;;
37855;SDS011;23694;43.274;26.924;2024-03-08T06:11:25;56.77;;;35.33;;
37855;SDS011;23694;43.274;26.924;2024-03-08T06:13:56;53.70;;;32.80;;
37855;SDS011;23694;43.274;26.924;2024-03-08T06:16:31;52.33;;;33.17;;
37855;SDS011;23694;43.274;26.924;2024-03-08T06:18:59;48.57;;;30.63;;
37855;SDS011;23694;43.274;26.924;2024-03-08T06:21:27;48.90;;;31.23;;
37855;SDS011;23694;43.274;26.924;2024-03-08T06:23:54;52.73;;;32.63;;
37855;SDS011;23694;43.274;26.924;2024-03-08T06:26:21;48.87;;;30.43;;
37855;SDS011;23694;43.274;26.924;2024-03-08T06:28:48;50.27;;;31.03;;
37855;SDS011;23694;43.274;26.924;2024-03-08T06:31:14;47.47;;;30.43;;
37855;SDS011;23694;43.274;26.924;2024-03-08T06:33:42;54.20;;;33.60;;
37855;SDS011;23694;43.274;26.924;2024-03-08T06:36:09;50.33;;;32.20;;
37855;SDS011;23694;43.274;26.924;2024-03-08T06:38:40;49.63;;;32.77;;
37855;SDS011;23694;43.274;26.924;2024-03-08T06:41:08;51.63;;;33.20;;
37855;SDS011;23694;43.274;26.924;2024-03-08T06:43:43;49.43;;;32.77;;
37855;SDS011;23694;43.274;26.924;2024-03-08T06:46:11;49.43;;;30.90;;
37855;SDS011;23694;43.274;26.924;2024-03-08T06:48:38;49.83;;;32.03;;
37855;SDS011;23694;43.274;26.924;2024-03-08T06:51:05;51.83;;;30.90;;
37855;SDS011;23694;43.274;26.924;2024-03-08T06:53:31;50.17;;;32.57;;
37855;SDS011;23694;43.274;26.924;2024-03-08T06:55:58;48.53;;;31.67;;
37855;SDS011;23694;43.274;26.924;2024-03-08T06:58:24;50.87;;;33.50;;
37855;SDS011;23694;43.274;26.924;2024-03-08T07:00:50;52.43;;;32.97;;
37855;SDS011;23694;43.274;26.924;2024-03-08T07:03:19;53.53;;;34.13;;
37855;SDS011;23694;43.274;26.924;2024-03-08T07:05:47;46.83;;;31.43;;
37855;SDS011;23694;43.274;26.924;2024-03-08T07:08:13;48.30;;;31.73;;
37855;SDS011;23694;43.274;26.924;2024-03-08T07:10:41;64.33;;;40.67;;
37855;SDS011;23694;43.274;26.924;2024-03-08T07:13:07;53.87;;;33.50;;
37855;SDS011;23694;43.274;26.924;2024-03-08T07:15:34;51.87;;;33.00;;
37855;SDS011;23694;43.274;26.924;2024-03-08T07:18:01;45.20;;;28.33;;
37855;SDS011;23694;43.274;26.924;2024-03-08T07:20:27;51.13;;;33.13;;
37855;SDS011;23694;43.274;26.924;2024-03-08T07:22:54;61.97;;;41.20;;
37855;SDS011;23694;43.274;26.924;2024-03-08T07:25:20;53.33;;;34.10;;
37855;SDS011;23694;43.274;26.924;2024-03-08T07:27:50;53.37;;;34.20;;
37855;SDS011;23694;43.274;26.924;2024-03-08T07:30:18;54.60;;;35.50;;
37855;SDS011;23694;43.274;26.924;2024-03-08T07:33:25;50.73;;;32.70;;
37855;SDS011;23694;43.274;26.924;2024-03-08T07:35:52;49.97;;;31.57;;
37855;SDS011;23694;43.274;26.924;2024-03-08T07:38:19;47.50;;;32.07;;
37855;SDS011;23694;43.274;26.924;2024-03-08T07:40:46;47.30;;;29.93;;
37855;SDS011;23694;43.274;26.924;2024-03-08T07:43:13;48.73;;;31.30;;
37855;SDS011;23694;43.274;26.924;2024-03-08T07:45:39;48.80;;;30.23;;
37855;SDS011;23694;43.274;26.924;2024-03-08T07:48:06;51.67;;;32.20;;
37855;SDS011;23694;43.274;26.924;2024-03-08T07:50:36;43.53;;;29.40;;
37855;SDS011;23694;43.274;26.924;2024-03-08T07:53:03;42.83;;;27.87;;
37855;SDS011;23694;43.274;26.924;2024-03-08T07:55:32;46.33;;;30.03;;
37855;SDS011;23694;43.274;26.924;2024-03-08T07:58:03;47.53;;;31.37;;
37855;SDS011;23694;43.274;26.924;2024-03-08T08:00:30;49.57;;;32.63;;
37855;SDS011;23694;43.274;26.924;2024-03-08T08:02:57;43.43;;;28.10;;
37855;SDS011;23694;43.274;26.924;2024-03-08T08:05:23;43.17;;;28.17;;
37855;SDS011;23694;43.274;26.924;2024-03-08T08:07:49;49.40;;;30.80;;
37855;SDS011;23694;43.274;26.924;2024-03-08T08:10:17;44.73;;;28.60;;
37855;SDS011;23694;43.274;26.924;2024-03-08T08:12:50;40.57;;;27.00;;
37855;SDS011;23694;43.274;26.924;2024-03-08T08:15:19;42.83;;;26.57;;
37855;SDS011;23694;43.274;26.924;2024-03-08T08:17:46;88.30;;;54.50;;
37855;SDS011;23694;43.274;26.924;2024-03-08T08:20:15;46.03;;;30.60;;
37855;SDS011;23694;43.274;26.924;2024-03-08T08:22:44;46.27;;;27.30;;
37855;SDS011;23694;43.274;26.924;2024-03-08T08:25:10;37.20;;;24.27;;
37855;SDS011;23694;43.274;26.924;2024-03-08T08:27:41;39.77;;;26.27;;
37855;SDS011;23694;43.274;26.924;2024-03-08T08:30:10;39.93;;;25.13;;
37855;SDS011;23694;43.274;26.924;2024-03-08T08:32:37;43.87;;;28.17;;
37855;SDS011;23694;43.274;26.924;2024-03-08T08:35:08;37.23;;;22.03;;
37855;SDS011;23694;43.274;26.924;2024-03-08T08:37:35;39.00;;;23.17;;
37855;SDS011;23694;43.274;26.924;2024-03-08T08:40:04;38.60;;;25.73;;
37855;SDS011;23694;43.274;26.924;2024-03-08T08:42:40;50.30;;;29.10;;
37855;SDS011;23694;43.274;26.924;2024-03-08T08:45:07;41.67;;;27.10;;
37855;SDS011;23694;43.274;26.924;2024-03-08T08:47:37;37.77;;;24.20;;
37855;SDS011;23694;43.274;26.924;2024-03-08T08:50:04;41.80;;;25.83;;
37855;SDS011;23694;43.274;26.924;2024-03-08T08:52:31;40.07;;;24.27;;
37855;SDS011;23694;43.274;26.924;2024-03-08T08:54:57;38.53;;;22.57;;
37855;SDS011;23694;43.274;26.924;2024-03-08T08:57:24;38.97;;;22.03;;
37855;SDS011;23694;43.274;26.924;2024-03-08T08:59:52;40.33;;;24.07;;
37855;SDS011;23694;43.274;26.924;2024-03-08T09:02:19;35.53;;;23.70;;
37855;SDS011;23694;43.274;26.924;2024-03-08T09:04:46;38.70;;;24.03;;
37855;SDS011;23694;43.274;26.924;2024-03-08T09:07:13;40.87;;;24.27;;
37855;SDS011;23694;43.274;26.924;2024-03-08T09:09:41;38.07;;;24.50;;
37855;SDS011;23694;43.274;26.924;2024-03-08T09:12:08;37.87;;;25.17;;
37855;SDS011;23694;43.274;26.924;2024-03-08T09:14:37;38.67;;;23.50;;
37855;SDS011;23694;43.274;26.924;2024-03-08T09:17:03;44.20;;;24.47;;
37855;SDS011;23694;43.274;26.924;2024-03-08T09:19:29;38.53;;;24.33;;
37855;SDS011;23694;43.274;26.924;2024-03-08T09:21:56;37.63;;;22.97;;
37855;SDS011;23694;43.274;26.924;2024-03-08T09:24:22;38.37;;;23.43;;
37855;SDS011;23694;43.274;26.924;2024-03-08T09:26:48;33.40;;;22.00;;
37855;SDS011;23694;43.274;26.924;2024-03-08T09:29:14;31.80;;;21.13;;
37855;SDS011;23694;43.274;26.924;2024-03-08T09:31:41;37.83;;;24.10;;
37855;SDS011;23694;43.274;26.924;2024-03-08T09:34:07;40.20;;;24.30;;
37855;SDS011;23694;43.274;26.924;2024-03-08T09:36:34;37.80;;;24.43;;
37855;SDS011;23694;43.274;26.924;2024-03-08T09:39:00;34.77;;;22.83;;
37855;SDS011;23694;43.274;26.924;2024-03-08T09:41:26;44.80;;;26.03;;
37855;SDS011;23694;43.274;26.924;2024-03-08T09:43:53;34.93;;;22.80;;
37855;SDS011;23694;43.274;26.924;2024-03-08T09:46:19;41.10;;;23.63;;
37855;SDS011;23694;43.274;26.924;2024-03-08T09:48:48;38.90;;;23.73;;
37855;SDS011;23694;43.274;26.924;2024-03-08T09:51:14;35.07;;;23.23;;
37855;SDS011;23694;43.274;26.924;2024-03-08T09:53:41;31.30;;;20.63;;
37855;SDS011;23694;43.274;26.924;2024-03-08T09:56:08;36.90;;;23.00;;
37855;SDS011;23694;43.274;26.924;2024-03-08T09:58:34;39.13;;;22.03;;
37855;SDS011;23694;43.274;26.924;2024-03-08T10:01:00;35.37;;;22.20;;
37855;SDS011;23694;43.274;26.924;2024-03-08T10:03:30;35.63;;;22.07;;
37855;SDS011;23694;43.274;26.924;2024-03-08T10:06:00;33.87;;;22.37;;
37855;SDS011;23694;43.274;26.924;2024-03-08T10:08:27;33.53;;;22.20;;
37855;SDS011;23694;43.274;26.924;2024-03-08T10:10:55;34.60;;;20.77;;
37855;SDS011;23694;43.274;26.924;2024-03-08T10:13:25;35.53;;;21.43;;
37855;SDS011;23694;43.274;26.924;2024-03-08T10:15:56;33.40;;;21.40;;
37855;SDS011;23694;43.274;26.924;2024-03-08T10:18:22;33.73;;;22.13;;
37855;SDS011;23694;43.274;26.924;2024-03-08T10:21:03;33.57;;;22.00;;
37855;SDS011;23694;43.274;26.924;2024-03-08T10:23:33;37.20;;;21.25;;
37855;SDS011;23694;43.274;26.924;2024-03-08T10:28:45;30.50;;;21.03;;
37855;SDS011;23694;43.274;26.924;2024-03-08T10:31:16;31.40;;;19.10;;
37855;SDS011;23694;43.274;26.924;2024-03-08T10:33:43;39.77;;;24.27;;
37855;SDS011;23694;43.274;26.924;2024-03-08T10:36:10;43.67;;;26.43;;
37855;SDS011;23694;43.274;26.924;2024-03-08T10:38:38;44.67;;;28.77;;
37855;SDS011;23694;43.274;26.924;2024-03-08T10:41:06;37.10;;;24.07;;
37855;SDS011;23694;43.274;26.924;2024-03-08T10:47:00;36.15;;;22.95;;
37855;SDS011;23694;43.274;26.924;2024-03-08T10:49:44;38.63;;;24.20;;
37855;SDS011;23694;43.274;26.924;2024-03-08T10:54:49;38.30;;;24.10;;
37855;SDS011;23694;43.274;26.924;2024-03-08T10:57:18;42.57;;;25.57;;
37855;SDS011;23694;43.274;26.924;2024-03-08T10:59:47;40.30;;;25.13;;
37855;SDS011;23694;43.274;26.924;2024-03-08T11:02:16;40.20;;;25.97;;
37855;SDS011;23694;43.274;26.924;2024-03-08T11:04:50;53.43;;;30.00;;
37855;SDS011;23694;43.274;26.924;2024-03-08T11:07:16;41.90;;;23.27;;
37855;SDS011;23694;43.274;26.924;2024-03-08T11:09:47;42.07;;;24.77;;
37855;SDS011;23694;43.274;26.924;2024-03-08T11:12:26;47.87;;;26.97;;
37855;SDS011;23694;43.274;26.924;2024-03-08T11:15:09;46.00;;;26.50;;
37855;SDS011;23694;43.274;26.924;2024-03-08T11:22:47;51.87;;;30.53;;
37855;SDS011;23694;43.274;26.924;2024-03-08T11:25:42;47.70;;;29.23;;
37855;SDS011;23694;43.274;26.924;2024-03-08T11:28:31;46.13;;;28.23;;
37855;SDS011;23694;43.274;26.924;2024-03-08T11:33:29;39.80;;;25.57;;
37855;SDS011;23694;43.274;26.924;2024-03-08T11:36:02;41.83;;;25.10;;
37855;SDS011;23694;43.274;26.924;2024-03-08T11:38:43;43.70;;;25.77;;
37855;SDS011;23694;43.274;26.924;2024-03-08T11:41:10;46.47;;;25.87;;
37855;SDS011;23694;43.274;26.924;2024-03-08T11:43:40;43.73;;;25.60;;
37855;SDS011;23694;43.274;26.924;2024-03-08T11:46:10;42.27;;;25.43;;
37855;SDS011;23694;43.274;26.924;2024-03-08T11:48:39;38.43;;;23.80;;
37855;SDS011;23694;43.274;26.924;2024-03-08T11:51:14;44.67;;;24.93;;
37855;SDS011;23694;43.274;26.924;2024-03-08T11:53:41;40.77;;;23.37;;
37855;SDS011;23694;43.274;26.924;2024-03-08T11:56:11;46.20;;;26.40;;
37855;SDS011;23694;43.274;26.924;2024-03-08T11:58:39;48.30;;;28.77;;
37855;SDS011;23694;43.274;26.924;2024-03-08T12:01:06;56.00;;;32.90;;
37855;SDS011;23694;43.274;26.924;2024-03-08T12:03:41;54.13;;;33.25;;
37855;SDS011;23694;43.274;26.924;2024-03-08T12:06:10;47.43;;;28.57;;
37855;SDS011;23694;43.274;26.924;2024-03-08T12:08:39;46.60;;;27.23;;
37855;SDS011;23694;43.274;26.924;2024-03-08T12:11:06;47.67;;;27.93;;
37855;SDS011;23694;43.274;26.924;2024-03-08T12:13:33;51.90;;;30.73;;
37855;SDS011;23694;43.274;26.924;2024-03-08T12:16:01;58.37;;;33.53;;
37855;SDS011;23694;43.274;26.924;2024-03-08T12:18:36;44.33;;;27.52;;
37855;SDS011;23694;43.274;26.924;2024-03-08T12:21:04;47.60;;;30.75;;
37855;SDS011;23694;43.274;26.924;2024-03-08T12:23:36;46.80;;;30.60;;
37855;SDS011;23694;43.274;26.924;2024-03-08T12:26:17;52.03;;;28.90;;
37855;SDS011;23694;43.274;26.924;2024-03-08T12:28:49;40.63;;;25.88;;
37855;SDS011;23694;43.274;26.924;2024-03-08T12:31:16;44.33;;;25.33;;
37855;SDS011;23694;43.274;26.924;2024-03-08T12:33:52;40.70;;;22.80;;
37855;SDS011;23694;43.274;26.924;2024-03-08T12:36:19;37.53;;;22.83;;
37855;SDS011;23694;43.274;26.924;2024-03-08T12:38:47;43.03;;;23.83;;
37855;SDS011;23694;43.274;26.924;2024-03-08T12:41:16;41.93;;;25.13;;
37855;SDS011;23694;43.274;26.924;2024-03-08T12:43:44;42.47;;;25.20;;
37855;SDS011;23694;43.274;26.924;2024-03-08T12:46:14;49.30;;;26.93;;
37855;SDS011;23694;43.274;26.924;2024-03-08T12:48:42;47.30;;;25.83;;
37855;SDS011;23694;43.274;26.924;2024-03-08T12:51:13;47.87;;;27.80;;
37855;SDS011;23694;43.274;26.924;2024-03-08T12:53:42;47.20;;;26.87;;
37855;SDS011;23694;43.274;26.924;2024-03-08T12:56:11;44.93;;;29.50;;
37855;SDS011;23694;43.274;26.924;2024-03-08T12:58:39;45.13;;;25.67;;
37855;SDS011;23694;43.274;26.924;2024-03-08T13:01:06;44.93;;;23.73;;
37855;SDS011;23694;43.274;26.924;2024-03-08T13:03:34;41.00;;;23.97;;
37855;SDS011;23694;43.274;26.924;2024-03-08T13:06:02;37.93;;;22.30;;
37855;SDS011;23694;43.274;26.924;2024-03-08T13:08:35;42.13;;;22.70;;
37855;SDS011;23694;43.274;26.924;2024-03-08T13:11:05;40.80;;;23.67;;
37855;SDS011;23694;43.274;26.924;2024-03-08T13:13:33;32.87;;;20.80;;
37855;SDS011;23694;43.274;26.924;2024-03-08T13:16:02;32.30;;;19.90;;
37855;SDS011;23694;43.274;26.924;2024-03-08T13:18:29;37.57;;;18.63;;
37855;SDS011;23694;43.274;26.924;2024-03-08T13:20:55;30.33;;;18.43;;
37855;SDS011;23694;43.274;26.924;2024-03-08T13:23:23;32.97;;;20.03;;
37855;SDS011;23694;43.274;26.924;2024-03-08T13:25:49;32.53;;;20.23;;
37855;SDS011;23694;43.274;26.924;2024-03-08T13:28:16;36.10;;;21.57;;
37855;SDS011;23694;43.274;26.924;2024-03-08T13:30:48;35.80;;;20.93;;
37855;SDS011;23694;43.274;26.924;2024-03-08T13:33:15;41.40;;;23.03;;
37855;SDS011;23694;43.274;26.924;2024-03-08T13:35:41;35.87;;;21.30;;
37855;SDS011;23694;43.274;26.924;2024-03-08T13:38:08;39.43;;;23.57;;
37855;SDS011;23694;43.274;26.924;2024-03-08T13:40:37;44.80;;;25.27;;
37855;SDS011;23694;43.274;26.924;2024-03-08T13:43:06;42.53;;;25.07;;
37855;SDS011;23694;43.274;26.924;2024-03-08T13:45:35;41.23;;;25.33;;
37855;SDS011;23694;43.274;26.924;2024-03-08T13:48:04;45.30;;;25.43;;
37855;SDS011;23694;43.274;26.924;2024-03-08T13:50:31;41.03;;;25.10;;
37855;SDS011;23694;43.274;26.924;2024-03-08T13:52:57;39.53;;;23.20;;
37855;SDS011;23694;43.274;26.924;2024-03-08T13:55:23;38.03;;;23.10;;
37855;SDS011;23694;43.274;26.924;2024-03-08T13:57:53;36.60;;;22.47;;
37855;SDS011;23694;43.274;26.924;2024-03-08T14:00:19;39.13;;;22.80;;
37855;SDS011;23694;43.274;26.924;2024-03-08T14:05:19;35.37;;;21.50;;
37855;SDS011;23694;43.274;26.924;2024-03-08T14:07:45;36.33;;;22.53;;
37855;SDS011;23694;43.274;26.924;2024-03-08T14:10:15;42.10;;;23.43;;
37855;SDS011;23694;43.274;26.924;2024-03-08T14:12:42;47.73;;;25.20;;
37855;SDS011;23694;43.274;26.924;2024-03-08T14:15:09;56.33;;;27.77;;
37855;SDS011;23694;43.274;26.924;2024-03-08T14:17:37;50.37;;;27.93;;
37855;SDS011;23694;43.274;26.924;2024-03-08T14:20:04;53.37;;;30.10;;
37855;SDS011;23694;43.274;26.924;2024-03-08T14:22:31;62.47;;;33.67;;
37855;SDS011;23694;43.274;26.924;2024-03-08T14:24:57;68.40;;;35.83;;
37855;SDS011;23694;43.274;26.924;2024-03-08T14:27:23;55.80;;;31.77;;
37855;SDS011;23694;43.274;26.924;2024-03-08T14:29:50;58.27;;;32.77;;
37855;SDS011;23694;43.274;26.924;2024-03-08T14:32:16;57.97;;;33.53;;